sensor_id;sensor_type;location;lat;lon;timestamp;temperature;humidity
39849;DHT22;25518;47.878;15.914;2022-10-22T00:00:08;8.60;99.90
39849;DHT22;25518;47.878;15.914;2022-10-22T00:02:54;8.60;99.90
39849;DHT22;25518;47.878;15.914;2022-10-22T00:05:40;8.60;99.90
39849;DHT22;25518;47.878;15.914;2022-10-22T00:08:26;8.60;99.90
39849;DHT22;25518;47.878;15.914;2022-10-22T00:11:16;8.60;99.90
39849;DHT22;25518;47.878;15.914;2022-10-22T00:14:03;8.60;99.90
39849;DHT22;25518;47.878;15.914;2022-10-22T00:16:50;8.40;99.90
39849;DHT22;25518;47.878;15.914;2022-10-22T00:19:36;8.30;99.90
39849;DHT22;25518;47.878;15.914;2022-10-22T00:22:22;8.30;99.90
39849;DHT22;25518;47.878;15.914;2022-10-22T00:25:09;8.40;99.90
39849;DHT22;25518;47.878;15.914;2022-10-22T00:27:55;8.40;99.90
39849;DHT22;25518;47.878;15.914;2022-10-22T00:30:41;8.30;99.90
39849;DHT22;25518;47.878;15.914;2022-10-22T00:33:28;8.30;99.90
39849;DHT22;25518;47.878;15.914;2022-10-22T00:36:15;8.30;99.90
39849;DHT22;25518;47.878;15.914;2022-10-22T00:39:02;8.20;99.90
39849;DHT22;25518;47.878;15.914;2022-10-22T00:41:49;8.20;99.90
39849;DHT22;25518;47.878;15.914;2022-10-22T00:48:03;8.30;99.90
39849;DHT22;25518;47.878;15.914;2022-10-22T00:50:56;8.20;99.90
39849;DHT22;25518;47.878;15.914;2022-10-22T00:53:49;8.30;99.90
39849;DHT22;25518;47.878;15.914;2022-10-22T00:56:38;8.30;99.90
39849;DHT22;25518;47.878;15.914;2022-10-22T00:59:24;8.40;99.90
39849;DHT22;25518;47.878;15.914;2022-10-22T01:02:11;8.40;99.90
39849;DHT22;25518;47.878;15.914;2022-10-22T01:04:57;8.50;99.90
39849;DHT22;25518;47.878;15.914;2022-10-22T01:07:47;8.50;99.90
39849;DHT22;25518;47.878;15.914;2022-10-22T01:10:53;8.60;99.90
39849;DHT22;25518;47.878;15.914;2022-10-22T01:17:08;8.50;99.90
39849;DHT22;25518;47.878;15.914;2022-10-22T01:24:08;8.30;99.90
39849;DHT22;25518;47.878;15.914;2022-10-22T01:26:53;8.20;99.90
39849;DHT22;25518;47.878;15.914;2022-10-22T01:29:47;7.70;99.90
39849;DHT22;25518;47.878;15.914;2022-10-22T01:32:40;8.30;99.90
39849;DHT22;25518;47.878;15.914;2022-10-22T01:35:31;8.30;99.90
39849;DHT22;25518;47.878;15.914;2022-10-22T01:38:21;8.30;99.90
39849;DHT22;25518;47.878;15.914;2022-10-22T01:41:09;8.30;99.90
39849;DHT22;25518;47.878;15.914;2022-10-22T01:43:55;8.40;99.90
39849;DHT22;25518;47.878;15.914;2022-10-22T01:46:42;8.20;99.90
39849;DHT22;25518;47.878;15.914;2022-10-22T01:53:06;7.20;99.90
39849;DHT22;25518;47.878;15.914;2022-10-22T01:56:21;8.00;99.90
39849;DHT22;25518;47.878;15.914;2022-10-22T02:05:48;7.80;99.90
39849;DHT22;25518;47.878;15.914;2022-10-22T02:08:35;7.90;99.90
39849;DHT22;25518;47.878;15.914;2022-10-22T02:11:22;8.00;99.90
39849;DHT22;25518;47.878;15.914;2022-10-22T02:14:09;7.90;99.90
39849;DHT22;25518;47.878;15.914;2022-10-22T02:16:58;7.90;99.90
39849;DHT22;25518;47.878;15.914;2022-10-22T02:19:47;7.90;99.90
39849;DHT22;25518;47.878;15.914;2022-10-22T02:22:37;7.60;99.90
39849;DHT22;25518;47.878;15.914;2022-10-22T02:25:26;7.50;99.90
39849;DHT22;25518;47.878;15.914;2022-10-22T02:28:16;7.40;99.90
39849;DHT22;25518;47.878;15.914;2022-10-22T02:31:10;7.40;99.90
39849;DHT22;25518;47.878;15.914;2022-10-22T02:34:02;7.60;99.90
39849;DHT22;25518;47.878;15.914;2022-10-22T02:36:50;7.60;99.90
39849;DHT22;25518;47.878;15.914;2022-10-22T02:39:38;7.50;99.90
39849;DHT22;25518;47.878;15.914;2022-10-22T02:42:25;7.50;99.90
39849;DHT22;25518;47.878;15.914;2022-10-22T02:45:13;7.40;99.90
39849;DHT22;25518;47.878;15.914;2022-10-22T02:48:00;7.40;99.90
39849;DHT22;25518;47.878;15.914;2022-10-22T02:50:46;7.20;99.90
39849;DHT22;25518;47.878;15.914;2022-10-22T02:53:33;7.10;99.90
39849;DHT22;25518;47.878;15.914;2022-10-22T02:56:19;7.20;99.90
39849;DHT22;25518;47.878;15.914;2022-10-22T02:59:05;7.20;99.90
39849;DHT22;25518;47.878;15.914;2022-10-22T03:18:28;7.10;99.90
39849;DHT22;25518;47.878;15.914;2022-10-22T03:21:43;7.10;99.90
39849;DHT22;25518;47.878;15.914;2022-10-22T03:24:34;6.90;99.90
39849;DHT22;25518;47.878;15.914;2022-10-22T03:27:22;6.90;99.90
39849;DHT22;25518;47.878;15.914;2022-10-22T03:30:08;7.10;99.90
39849;DHT22;25518;47.878;15.914;2022-10-22T03:32:55;7.10;99.90
39849;DHT22;25518;47.878;15.914;2022-10-22T03:35:45;7.10;99.90
39849;DHT22;25518;47.878;15.914;2022-10-22T03:38:34;7.00;99.90
39849;DHT22;25518;47.878;15.914;2022-10-22T03:41:20;6.90;99.90
39849;DHT22;25518;47.878;15.914;2022-10-22T03:44:07;6.80;99.90
39849;DHT22;25518;47.878;15.914;2022-10-22T03:46:54;6.70;99.90
39849;DHT22;25518;47.878;15.914;2022-10-22T03:49:40;6.70;99.90
39849;DHT22;25518;47.878;15.914;2022-10-22T03:52:26;6.70;99.90
39849;DHT22;25518;47.878;15.914;2022-10-22T03:55:13;6.70;99.90
39849;DHT22;25518;47.878;15.914;2022-10-22T03:57:59;6.70;99.90
39849;DHT22;25518;47.878;15.914;2022-10-22T04:00:45;6.70;99.90
39849;DHT22;25518;47.878;15.914;2022-10-22T04:03:32;6.60;99.90
39849;DHT22;25518;47.878;15.914;2022-10-22T04:06:18;6.50;99.90
39849;DHT22;25518;47.878;15.914;2022-10-22T04:09:04;6.50;99.90
39849;DHT22;25518;47.878;15.914;2022-10-22T04:11:51;6.60;99.90
39849;DHT22;25518;47.878;15.914;2022-10-22T04:14:37;6.70;99.90
39849;DHT22;25518;47.878;15.914;2022-10-22T04:17:23;6.70;99.90
39849;DHT22;25518;47.878;15.914;2022-10-22T04:20:10;6.80;99.90
39849;DHT22;25518;47.878;15.914;2022-10-22T04:22:56;6.80;99.90
39849;DHT22;25518;47.878;15.914;2022-10-22T04:25:42;6.80;99.90
39849;DHT22;25518;47.878;15.914;2022-10-22T04:28:29;6.70;99.90
39849;DHT22;25518;47.878;15.914;2022-10-22T04:31:18;6.70;99.90
39849;DHT22;25518;47.878;15.914;2022-10-22T04:34:04;6.70;99.90
39849;DHT22;25518;47.878;15.914;2022-10-22T04:36:51;6.60;99.90
39849;DHT22;25518;47.878;15.914;2022-10-22T04:39:37;6.60;99.90
39849;DHT22;25518;47.878;15.914;2022-10-22T04:42:23;6.70;99.90
39849;DHT22;25518;47.878;15.914;2022-10-22T04:45:09;6.80;99.90
39849;DHT22;25518;47.878;15.914;2022-10-22T04:47:56;6.70;99.90
39849;DHT22;25518;47.878;15.914;2022-10-22T04:50:42;6.70;99.90
39849;DHT22;25518;47.878;15.914;2022-10-22T04:53:28;6.70;99.90
39849;DHT22;25518;47.878;15.914;2022-10-22T04:59:06;6.80;99.90
39849;DHT22;25518;47.878;15.914;2022-10-22T05:01:54;6.90;99.90
39849;DHT22;25518;47.878;15.914;2022-10-22T05:04:43;6.70;99.90
39849;DHT22;25518;47.878;15.914;2022-10-22T05:07:29;6.80;99.90
39849;DHT22;25518;47.878;15.914;2022-10-22T05:10:15;6.70;99.90
39849;DHT22;25518;47.878;15.914;2022-10-22T05:13:02;6.80;99.90
39849;DHT22;25518;47.878;15.914;2022-10-22T05:15:48;6.90;99.90
39849;DHT22;25518;47.878;15.914;2022-10-22T05:18:36;6.80;99.90
39849;DHT22;25518;47.878;15.914;2022-10-22T05:21:23;6.90;99.90
39849;DHT22;25518;47.878;15.914;2022-10-22T05:24:10;7.00;99.90
39849;DHT22;25518;47.878;15.914;2022-10-22T05:26:57;7.10;99.90
39849;DHT22;25518;47.878;15.914;2022-10-22T05:29:44;7.20;99.90
39849;DHT22;25518;47.878;15.914;2022-10-22T05:32:30;7.20;99.90
39849;DHT22;25518;47.878;15.914;2022-10-22T05:35:16;7.10;99.90
39849;DHT22;25518;47.878;15.914;2022-10-22T05:38:02;7.10;99.90
39849;DHT22;25518;47.878;15.914;2022-10-22T05:40:59;6.90;99.90
39849;DHT22;25518;47.878;15.914;2022-10-22T05:43:46;7.00;99.90
39849;DHT22;25518;47.878;15.914;2022-10-22T05:46:34;7.10;99.90
39849;DHT22;25518;47.878;15.914;2022-10-22T05:49:21;7.00;99.90
39849;DHT22;25518;47.878;15.914;2022-10-22T05:52:07;7.00;99.90
39849;DHT22;25518;47.878;15.914;2022-10-22T05:54:53;6.90;99.90
39849;DHT22;25518;47.878;15.914;2022-10-22T05:57:39;6.90;99.90
39849;DHT22;25518;47.878;15.914;2022-10-22T06:00:26;6.90;99.90
39849;DHT22;25518;47.878;15.914;2022-10-22T06:03:12;6.90;99.90
39849;DHT22;25518;47.878;15.914;2022-10-22T06:06:00;6.90;99.90
39849;DHT22;25518;47.878;15.914;2022-10-22T06:08:48;6.90;99.90
39849;DHT22;25518;47.878;15.914;2022-10-22T06:11:35;7.00;99.90
39849;DHT22;25518;47.878;15.914;2022-10-22T06:14:23;7.20;99.90
39849;DHT22;25518;47.878;15.914;2022-10-22T06:17:11;7.30;99.90
39849;DHT22;25518;47.878;15.914;2022-10-22T06:19:57;7.40;99.90
39849;DHT22;25518;47.878;15.914;2022-10-22T06:22:44;7.20;99.90
39849;DHT22;25518;47.878;15.914;2022-10-22T06:25:30;7.30;99.90
39849;DHT22;25518;47.878;15.914;2022-10-22T06:28:16;7.40;99.90
39849;DHT22;25518;47.878;15.914;2022-10-22T06:31:03;7.40;99.90
39849;DHT22;25518;47.878;15.914;2022-10-22T06:33:49;7.50;99.90
39849;DHT22;25518;47.878;15.914;2022-10-22T06:36:36;7.40;99.90
39849;DHT22;25518;47.878;15.914;2022-10-22T06:39:22;7.50;99.90
39849;DHT22;25518;47.878;15.914;2022-10-22T06:42:08;7.70;99.90
39849;DHT22;25518;47.878;15.914;2022-10-22T06:44:55;7.80;99.90
39849;DHT22;25518;47.878;15.914;2022-10-22T06:47:41;7.80;99.90
39849;DHT22;25518;47.878;15.914;2022-10-22T06:50:40;7.90;99.90
39849;DHT22;25518;47.878;15.914;2022-10-22T06:53:26;8.00;99.90
39849;DHT22;25518;47.878;15.914;2022-10-22T06:56:16;8.00;99.90
39849;DHT22;25518;47.878;15.914;2022-10-22T06:59:03;8.10;99.90
39849;DHT22;25518;47.878;15.914;2022-10-22T07:01:49;8.00;99.90
39849;DHT22;25518;47.878;15.914;2022-10-22T07:04:35;8.10;99.90
39849;DHT22;25518;47.878;15.914;2022-10-22T07:07:21;8.20;99.90
39849;DHT22;25518;47.878;15.914;2022-10-22T07:10:08;8.30;99.90
39849;DHT22;25518;47.878;15.914;2022-10-22T07:12:54;8.20;99.90
39849;DHT22;25518;47.878;15.914;2022-10-22T07:15:41;8.00;99.90
39849;DHT22;25518;47.878;15.914;2022-10-22T07:18:27;8.00;99.90
39849;DHT22;25518;47.878;15.914;2022-10-22T07:21:16;8.20;99.90
39849;DHT22;25518;47.878;15.914;2022-10-22T07:24:03;8.30;99.90
39849;DHT22;25518;47.878;15.914;2022-10-22T07:26:49;8.40;99.90
39849;DHT22;25518;47.878;15.914;2022-10-22T07:29:36;8.50;99.90
39849;DHT22;25518;47.878;15.914;2022-10-22T07:32:22;8.50;99.90
39849;DHT22;25518;47.878;15.914;2022-10-22T07:35:08;8.50;99.90
39849;DHT22;25518;47.878;15.914;2022-10-22T07:37:55;8.60;99.90
39849;DHT22;25518;47.878;15.914;2022-10-22T07:40:42;8.60;99.90
39849;DHT22;25518;47.878;15.914;2022-10-22T07:43:28;8.60;99.90
39849;DHT22;25518;47.878;15.914;2022-10-22T07:46:14;8.60;99.90
39849;DHT22;25518;47.878;15.914;2022-10-22T07:49:00;8.70;99.90
39849;DHT22;25518;47.878;15.914;2022-10-22T07:51:47;8.80;99.90
39849;DHT22;25518;47.878;15.914;2022-10-22T07:54:33;8.90;99.90
39849;DHT22;25518;47.878;15.914;2022-10-22T07:57:19;8.90;99.90
39849;DHT22;25518;47.878;15.914;2022-10-22T08:00:07;8.90;99.90
39849;DHT22;25518;47.878;15.914;2022-10-22T08:02:54;9.00;99.90
39849;DHT22;25518;47.878;15.914;2022-10-22T08:05:40;8.90;99.90
39849;DHT22;25518;47.878;15.914;2022-10-22T08:08:30;9.00;99.90
39849;DHT22;25518;47.878;15.914;2022-10-22T08:11:17;8.90;99.90
39849;DHT22;25518;47.878;15.914;2022-10-22T08:14:03;9.00;99.90
39849;DHT22;25518;47.878;15.914;2022-10-22T08:16:49;8.90;99.90
39849;DHT22;25518;47.878;15.914;2022-10-22T08:19:35;8.90;99.90
39849;DHT22;25518;47.878;15.914;2022-10-22T08:22:22;9.00;99.90
39849;DHT22;25518;47.878;15.914;2022-10-22T08:25:09;9.00;99.90
39849;DHT22;25518;47.878;15.914;2022-10-22T08:27:56;9.00;99.90
39849;DHT22;25518;47.878;15.914;2022-10-22T08:30:42;9.30;99.90
39849;DHT22;25518;47.878;15.914;2022-10-22T08:33:29;9.20;99.90
39849;DHT22;25518;47.878;15.914;2022-10-22T08:36:15;9.30;99.90
39849;DHT22;25518;47.878;15.914;2022-10-22T08:39:02;9.20;99.90
39849;DHT22;25518;47.878;15.914;2022-10-22T08:42:32;9.20;99.90
39849;DHT22;25518;47.878;15.914;2022-10-22T08:48:39;9.20;99.90
39849;DHT22;25518;47.878;15.914;2022-10-22T08:51:30;9.20;99.90
39849;DHT22;25518;47.878;15.914;2022-10-22T08:54:55;9.40;99.90
39849;DHT22;25518;47.878;15.914;2022-10-22T08:57:50;9.50;99.90
39849;DHT22;25518;47.878;15.914;2022-10-22T09:00:44;9.50;99.90
39849;DHT22;25518;47.878;15.914;2022-10-22T09:03:40;9.60;99.90
39849;DHT22;25518;47.878;15.914;2022-10-22T09:06:30;9.70;99.90
39849;DHT22;25518;47.878;15.914;2022-10-22T09:09:18;9.90;99.90
39849;DHT22;25518;47.878;15.914;2022-10-22T09:12:05;10.10;99.90
39849;DHT22;25518;47.878;15.914;2022-10-22T09:14:52;10.30;99.90
39849;DHT22;25518;47.878;15.914;2022-10-22T09:23:54;10.80;99.90
39849;DHT22;25518;47.878;15.914;2022-10-22T09:26:41;11.00;99.90
39849;DHT22;25518;47.878;15.914;2022-10-22T09:29:32;11.60;99.90
39849;DHT22;25518;47.878;15.914;2022-10-22T09:32:19;12.00;99.90
39849;DHT22;25518;47.878;15.914;2022-10-22T09:35:10;12.30;99.90
39849;DHT22;25518;47.878;15.914;2022-10-22T09:37:57;12.00;99.90
39849;DHT22;25518;47.878;15.914;2022-10-22T09:40:54;11.60;99.90
39849;DHT22;25518;47.878;15.914;2022-10-22T09:43:40;11.40;99.90
39849;DHT22;25518;47.878;15.914;2022-10-22T09:46:28;12.00;99.90
39849;DHT22;25518;47.878;15.914;2022-10-22T09:49:18;12.30;99.90
39849;DHT22;25518;47.878;15.914;2022-10-22T09:52:25;12.80;99.90
39849;DHT22;25518;47.878;15.914;2022-10-22T09:55:15;13.20;99.90
39849;DHT22;25518;47.878;15.914;2022-10-22T09:58:02;13.60;99.90
39849;DHT22;25518;47.878;15.914;2022-10-22T10:00:54;13.30;99.90
39849;DHT22;25518;47.878;15.914;2022-10-22T10:03:40;13.40;99.90
39849;DHT22;25518;47.878;15.914;2022-10-22T10:06:31;13.50;99.90
39849;DHT22;25518;47.878;15.914;2022-10-22T10:09:21;13.70;99.90
39849;DHT22;25518;47.878;15.914;2022-10-22T10:12:13;13.90;99.90
39849;DHT22;25518;47.878;15.914;2022-10-22T10:15:11;14.00;99.90
39849;DHT22;25518;47.878;15.914;2022-10-22T10:21:20;14.20;99.90
39849;DHT22;25518;47.878;15.914;2022-10-22T10:27:20;14.40;99.90
39849;DHT22;25518;47.878;15.914;2022-10-22T10:30:13;14.40;99.90
39849;DHT22;25518;47.878;15.914;2022-10-22T10:33:14;14.60;99.90
39849;DHT22;25518;47.878;15.914;2022-10-22T10:39:09;14.70;99.90
39849;DHT22;25518;47.878;15.914;2022-10-22T10:45:20;14.80;99.90
39849;DHT22;25518;47.878;15.914;2022-10-22T10:51:05;15.00;99.90
39849;DHT22;25518;47.878;15.914;2022-10-22T10:53:58;15.10;99.90
39849;DHT22;25518;47.878;15.914;2022-10-22T10:56:54;15.10;99.90
39849;DHT22;25518;47.878;15.914;2022-10-22T11:02:52;15.30;99.90
39849;DHT22;25518;47.878;15.914;2022-10-22T11:05:48;15.40;99.90
39849;DHT22;25518;47.878;15.914;2022-10-22T11:08:42;15.40;99.90
39849;DHT22;25518;47.878;15.914;2022-10-22T11:11:43;15.40;99.90
39849;DHT22;25518;47.878;15.914;2022-10-22T11:14:54;13.40;99.90
39849;DHT22;25518;47.878;15.914;2022-10-22T11:17:45;15.40;99.90
39849;DHT22;25518;47.878;15.914;2022-10-22T11:23:27;15.30;99.90
39849;DHT22;25518;47.878;15.914;2022-10-22T11:26:53;15.20;99.90
39849;DHT22;25518;47.878;15.914;2022-10-22T11:29:32;15.30;99.90
39849;DHT22;25518;47.878;15.914;2022-10-22T11:32:21;15.30;99.90
39849;DHT22;25518;47.878;15.914;2022-10-22T11:35:15;15.30;99.90
39849;DHT22;25518;47.878;15.914;2022-10-22T11:38:04;15.20;99.90
39849;DHT22;25518;47.878;15.914;2022-10-22T11:41:04;15.20;99.90
39849;DHT22;25518;47.878;15.914;2022-10-22T11:49:40;15.00;99.90
39849;DHT22;25518;47.878;15.914;2022-10-22T12:01:27;14.80;99.90
39849;DHT22;25518;47.878;15.914;2022-10-22T12:04:16;14.80;99.90
39849;DHT22;25518;47.878;15.914;2022-10-22T12:07:03;14.80;99.90
39849;DHT22;25518;47.878;15.914;2022-10-22T12:09:51;14.80;99.90
39849;DHT22;25518;47.878;15.914;2022-10-22T12:12:37;14.80;99.90
39849;DHT22;25518;47.878;15.914;2022-10-22T12:15:26;14.80;99.90
39849;DHT22;25518;47.878;15.914;2022-10-22T12:18:13;14.80;99.90
39849;DHT22;25518;47.878;15.914;2022-10-22T12:21:01;14.70;99.90
39849;DHT22;25518;47.878;15.914;2022-10-22T12:23:48;14.60;99.90
39849;DHT22;25518;47.878;15.914;2022-10-22T12:26:36;14.60;99.90
39849;DHT22;25518;47.878;15.914;2022-10-22T12:29:22;14.60;99.90
39849;DHT22;25518;47.878;15.914;2022-10-22T12:32:13;14.50;99.90
39849;DHT22;25518;47.878;15.914;2022-10-22T12:35:06;14.50;99.90
39849;DHT22;25518;47.878;15.914;2022-10-22T12:37:57;14.40;99.90
39849;DHT22;25518;47.878;15.914;2022-10-22T12:40:47;14.30;99.90
39849;DHT22;25518;47.878;15.914;2022-10-22T12:43:33;14.30;99.90
39849;DHT22;25518;47.878;15.914;2022-10-22T12:46:20;14.20;99.90
39849;DHT22;25518;47.878;15.914;2022-10-22T12:49:14;14.30;99.90
39849;DHT22;25518;47.878;15.914;2022-10-22T12:52:05;14.40;99.90
39849;DHT22;25518;47.878;15.914;2022-10-22T12:54:52;14.30;99.90
39849;DHT22;25518;47.878;15.914;2022-10-22T12:57:39;14.20;99.90
39849;DHT22;25518;47.878;15.914;2022-10-22T13:00:32;14.10;99.90
39849;DHT22;25518;47.878;15.914;2022-10-22T13:03:26;14.10;99.90
39849;DHT22;25518;47.878;15.914;2022-10-22T13:06:24;14.10;99.90
39849;DHT22;25518;47.878;15.914;2022-10-22T13:09:21;14.10;99.90
39849;DHT22;25518;47.878;15.914;2022-10-22T13:12:09;14.00;99.90
39849;DHT22;25518;47.878;15.914;2022-10-22T13:21:02;14.00;99.90
39849;DHT22;25518;47.878;15.914;2022-10-22T13:23:54;14.00;99.90
39849;DHT22;25518;47.878;15.914;2022-10-22T13:26:40;14.00;99.90
39849;DHT22;25518;47.878;15.914;2022-10-22T13:29:27;14.00;99.90
39849;DHT22;25518;47.878;15.914;2022-10-22T13:35:17;13.90;99.90
39849;DHT22;25518;47.878;15.914;2022-10-22T13:38:14;13.80;99.90
39849;DHT22;25518;47.878;15.914;2022-10-22T13:41:03;13.80;99.90
39849;DHT22;25518;47.878;15.914;2022-10-22T13:43:50;13.80;99.90
39849;DHT22;25518;47.878;15.914;2022-10-22T13:46:37;13.80;99.90
39849;DHT22;25518;47.878;15.914;2022-10-22T13:49:27;13.80;99.90
39849;DHT22;25518;47.878;15.914;2022-10-22T13:52:23;13.80;99.90
39849;DHT22;25518;47.878;15.914;2022-10-22T13:58:08;13.20;99.90
39849;DHT22;25518;47.878;15.914;2022-10-22T14:00:58;14.00;99.90
39849;DHT22;25518;47.878;15.914;2022-10-22T14:03:45;14.00;99.90
39849;DHT22;25518;47.878;15.914;2022-10-22T14:06:33;14.00;99.90
39849;DHT22;25518;47.878;15.914;2022-10-22T14:09:20;14.10;99.90
39849;DHT22;25518;47.878;15.914;2022-10-22T14:12:16;14.20;99.90
39849;DHT22;25518;47.878;15.914;2022-10-22T14:15:02;14.10;99.90
39849;DHT22;25518;47.878;15.914;2022-10-22T14:17:53;14.10;99.90
39849;DHT22;25518;47.878;15.914;2022-10-22T14:20:42;14.00;99.90
39849;DHT22;25518;47.878;15.914;2022-10-22T14:23:29;13.90;99.90
39849;DHT22;25518;47.878;15.914;2022-10-22T14:26:22;13.90;99.90
39849;DHT22;25518;47.878;15.914;2022-10-22T14:29:08;14.00;99.90
39849;DHT22;25518;47.878;15.914;2022-10-22T14:31:55;13.90;99.90
39849;DHT22;25518;47.878;15.914;2022-10-22T14:34:41;13.90;99.90
39849;DHT22;25518;47.878;15.914;2022-10-22T14:37:28;13.80;99.90
39849;DHT22;25518;47.878;15.914;2022-10-22T14:40:17;13.90;99.90
39849;DHT22;25518;47.878;15.914;2022-10-22T14:43:04;14.10;99.90
39849;DHT22;25518;47.878;15.914;2022-10-22T14:45:51;14.00;99.90
39849;DHT22;25518;47.878;15.914;2022-10-22T14:48:37;14.00;99.90
39849;DHT22;25518;47.878;15.914;2022-10-22T14:51:24;13.90;99.90
39849;DHT22;25518;47.878;15.914;2022-10-22T14:54:10;13.80;99.90
39849;DHT22;25518;47.878;15.914;2022-10-22T14:56:57;13.90;99.90
39849;DHT22;25518;47.878;15.914;2022-10-22T14:59:43;14.00;99.90
39849;DHT22;25518;47.878;15.914;2022-10-22T15:02:30;14.00;99.90
39849;DHT22;25518;47.878;15.914;2022-10-22T15:05:17;13.90;99.90
39849;DHT22;25518;47.878;15.914;2022-10-22T15:08:05;13.80;99.90
39849;DHT22;25518;47.878;15.914;2022-10-22T15:11:00;13.70;99.90
39849;DHT22;25518;47.878;15.914;2022-10-22T15:13:47;13.80;99.90
39849;DHT22;25518;47.878;15.914;2022-10-22T15:16:34;13.80;99.90
39849;DHT22;25518;47.878;15.914;2022-10-22T15:19:20;13.70;99.90
39849;DHT22;25518;47.878;15.914;2022-10-22T15:22:06;13.60;99.90
39849;DHT22;25518;47.878;15.914;2022-10-22T15:24:53;13.50;99.90
39849;DHT22;25518;47.878;15.914;2022-10-22T15:27:39;13.40;99.90
39849;DHT22;25518;47.878;15.914;2022-10-22T15:30:26;13.50;99.90
39849;DHT22;25518;47.878;15.914;2022-10-22T15:33:14;13.50;99.90
39849;DHT22;25518;47.878;15.914;2022-10-22T15:36:13;13.60;99.90
39849;DHT22;25518;47.878;15.914;2022-10-22T15:39:08;13.50;99.90
39849;DHT22;25518;47.878;15.914;2022-10-22T15:41:55;13.40;99.90
39849;DHT22;25518;47.878;15.914;2022-10-22T15:44:42;13.50;99.90
39849;DHT22;25518;47.878;15.914;2022-10-22T15:47:28;13.50;99.90
39849;DHT22;25518;47.878;15.914;2022-10-22T15:53:06;13.50;99.90
39849;DHT22;25518;47.878;15.914;2022-10-22T15:55:55;13.50;99.90
39849;DHT22;25518;47.878;15.914;2022-10-22T15:58:41;13.60;99.90
39849;DHT22;25518;47.878;15.914;2022-10-22T16:01:28;13.70;99.90
39849;DHT22;25518;47.878;15.914;2022-10-22T16:04:14;13.60;99.90
39849;DHT22;25518;47.878;15.914;2022-10-22T16:07:01;13.50;99.90
39849;DHT22;25518;47.878;15.914;2022-10-22T16:09:47;13.50;99.90
39849;DHT22;25518;47.878;15.914;2022-10-22T16:12:33;13.40;99.90
39849;DHT22;25518;47.878;15.914;2022-10-22T16:15:20;13.30;99.90
39849;DHT22;25518;47.878;15.914;2022-10-22T16:18:07;13.50;99.90
39849;DHT22;25518;47.878;15.914;2022-10-22T16:20:54;13.50;99.90
39849;DHT22;25518;47.878;15.914;2022-10-22T16:23:41;13.50;99.90
39849;DHT22;25518;47.878;15.914;2022-10-22T16:26:28;13.40;99.90
39849;DHT22;25518;47.878;15.914;2022-10-22T16:29:15;13.40;99.90
39849;DHT22;25518;47.878;15.914;2022-10-22T16:32:01;13.40;99.90
39849;DHT22;25518;47.878;15.914;2022-10-22T16:34:47;13.40;99.90
39849;DHT22;25518;47.878;15.914;2022-10-22T16:37:34;13.50;99.90
39849;DHT22;25518;47.878;15.914;2022-10-22T16:40:20;13.40;99.90
39849;DHT22;25518;47.878;15.914;2022-10-22T16:43:06;13.30;99.90
39849;DHT22;25518;47.878;15.914;2022-10-22T16:45:53;13.20;99.90
39849;DHT22;25518;47.878;15.914;2022-10-22T16:48:45;13.10;99.90
39849;DHT22;25518;47.878;15.914;2022-10-22T16:51:32;13.00;99.90
39849;DHT22;25518;47.878;15.914;2022-10-22T16:54:19;13.00;99.90
39849;DHT22;25518;47.878;15.914;2022-10-22T16:57:06;13.00;99.90
39849;DHT22;25518;47.878;15.914;2022-10-22T16:59:53;12.90;99.90
39849;DHT22;25518;47.878;15.914;2022-10-22T17:02:39;12.80;99.90
39849;DHT22;25518;47.878;15.914;2022-10-22T17:05:26;12.70;99.90
39849;DHT22;25518;47.878;15.914;2022-10-22T17:08:13;12.80;99.90
39849;DHT22;25518;47.878;15.914;2022-10-22T17:11:08;12.60;99.90
39849;DHT22;25518;47.878;15.914;2022-10-22T17:13:55;12.60;99.90
39849;DHT22;25518;47.878;15.914;2022-10-22T17:16:42;12.70;99.90
39849;DHT22;25518;47.878;15.914;2022-10-22T17:19:28;12.80;99.90
39849;DHT22;25518;47.878;15.914;2022-10-22T17:22:14;12.70;99.90
39849;DHT22;25518;47.878;15.914;2022-10-22T17:25:22;12.80;99.90
39849;DHT22;25518;47.878;15.914;2022-10-22T17:28:10;12.80;99.90
39849;DHT22;25518;47.878;15.914;2022-10-22T17:31:17;12.70;99.90
39849;DHT22;25518;47.878;15.914;2022-10-22T17:34:07;12.70;99.90
39849;DHT22;25518;47.878;15.914;2022-10-22T17:36:53;12.50;99.90
39849;DHT22;25518;47.878;15.914;2022-10-22T17:39:40;12.60;99.90
39849;DHT22;25518;47.878;15.914;2022-10-22T17:42:27;12.50;99.90
39849;DHT22;25518;47.878;15.914;2022-10-22T17:45:14;12.70;99.90
39849;DHT22;25518;47.878;15.914;2022-10-22T17:48:00;12.60;99.90
39849;DHT22;25518;47.878;15.914;2022-10-22T17:50:47;12.50;99.90
39849;DHT22;25518;47.878;15.914;2022-10-22T17:53:33;12.70;99.90
39849;DHT22;25518;47.878;15.914;2022-10-22T17:56:22;12.80;99.90
39849;DHT22;25518;47.878;15.914;2022-10-22T17:59:12;12.60;99.90
39849;DHT22;25518;47.878;15.914;2022-10-22T18:01:58;12.50;99.90
39849;DHT22;25518;47.878;15.914;2022-10-22T18:04:50;12.30;99.90
39849;DHT22;25518;47.878;15.914;2022-10-22T18:07:37;12.40;99.90
39849;DHT22;25518;47.878;15.914;2022-10-22T18:10:24;12.40;99.90
39849;DHT22;25518;47.878;15.914;2022-10-22T18:13:10;12.50;99.90
39849;DHT22;25518;47.878;15.914;2022-10-22T18:15:56;12.60;99.90
39849;DHT22;25518;47.878;15.914;2022-10-22T18:18:45;12.50;99.90
39849;DHT22;25518;47.878;15.914;2022-10-22T18:21:32;12.30;99.90
39849;DHT22;25518;47.878;15.914;2022-10-22T18:24:19;12.20;99.90
39849;DHT22;25518;47.878;15.914;2022-10-22T18:27:05;12.50;99.90
39849;DHT22;25518;47.878;15.914;2022-10-22T18:29:51;12.60;99.90
39849;DHT22;25518;47.878;15.914;2022-10-22T18:32:38;12.50;99.90
39849;DHT22;25518;47.878;15.914;2022-10-22T18:35:24;12.50;99.90
39849;DHT22;25518;47.878;15.914;2022-10-22T18:38:18;12.50;99.90
39849;DHT22;25518;47.878;15.914;2022-10-22T18:41:08;12.50;99.90
39849;DHT22;25518;47.878;15.914;2022-10-22T18:43:59;12.50;99.90
39849;DHT22;25518;47.878;15.914;2022-10-22T18:46:47;12.60;99.90
39849;DHT22;25518;47.878;15.914;2022-10-22T18:49:36;12.60;99.90
39849;DHT22;25518;47.878;15.914;2022-10-22T18:52:22;12.50;99.90
39849;DHT22;25518;47.878;15.914;2022-10-22T18:55:09;12.60;99.90
39849;DHT22;25518;47.878;15.914;2022-10-22T18:57:55;12.50;99.90
39849;DHT22;25518;47.878;15.914;2022-10-22T19:00:42;12.40;99.90
39849;DHT22;25518;47.878;15.914;2022-10-22T19:03:28;12.30;99.90
39849;DHT22;25518;47.878;15.914;2022-10-22T19:06:17;12.20;99.90
39849;DHT22;25518;47.878;15.914;2022-10-22T19:09:08;12.00;99.90
39849;DHT22;25518;47.878;15.914;2022-10-22T19:11:55;12.30;99.90
39849;DHT22;25518;47.878;15.914;2022-10-22T19:14:41;12.30;99.90
39849;DHT22;25518;47.878;15.914;2022-10-22T19:17:29;12.20;99.90